createdAt,value
2022-08-14T00:01:54.943Z,7.40
2022-08-14T00:04:34.770Z,6.17
2022-08-14T00:07:10.385Z,6.27
2022-08-14T00:09:56.353Z,7.53
2022-08-14T00:12:33.631Z,6.73
2022-08-14T00:15:10.426Z,7.10
2022-08-14T00:17:47.856Z,7.60
2022-08-14T00:20:24.025Z,6.30
2022-08-14T00:22:58.395Z,6.50
2022-08-14T00:25:30.534Z,6.60
2022-08-14T00:28:15.581Z,7.40
2022-08-14T00:30:47.793Z,6.17
2022-08-14T00:33:16.858Z,7.53
2022-08-14T00:36:36.291Z,7.47
2022-08-14T00:38:35.200Z,6.70
2022-08-14T00:41:06.084Z,7.00
2022-08-14T00:43:34.407Z,6.73
2022-08-14T00:46:08.055Z,7.13
2022-08-14T00:48:36.928Z,7.17
2022-08-14T00:51:09.846Z,6.80
2022-08-14T00:53:42.993Z,7.87
2022-08-14T00:56:14.128Z,7.90
2022-08-14T00:58:45.421Z,7.60
2022-08-14T01:01:19.104Z,7.00
2022-08-14T01:03:49.695Z,7.40
2022-08-14T01:06:23.184Z,7.20
2022-08-14T01:08:59.572Z,7.80
2022-08-14T01:11:35.600Z,7.30
2022-08-14T01:14:25.352Z,7.40
2022-08-14T01:16:55.620Z,7.83
2022-08-14T01:19:50.266Z,6.60
2022-08-14T01:22:26.716Z,7.40
2022-08-14T01:24:55.617Z,7.10
2022-08-14T01:27:25.846Z,7.93
2022-08-14T01:30:04.212Z,8.10
2022-08-14T01:32:35.437Z,7.17
2022-08-14T01:36:05.356Z,6.40
2022-08-14T01:38:09.338Z,7.00
2022-08-14T01:40:41.733Z,7.37
2022-08-14T01:43:18.681Z,7.93
2022-08-14T01:45:57.609Z,8.23
2022-08-14T01:48:37.348Z,8.10
2022-08-14T01:51:18.698Z,7.83
2022-08-14T01:53:54.695Z,8.30
2022-08-14T01:56:36.908Z,8.47
2022-08-14T01:59:09.826Z,8.13
2022-08-14T02:01:38.417Z,8.87
2022-08-14T02:04:40.737Z,8.73
2022-08-14T02:06:59.562Z,7.20
2022-08-14T02:09:31.995Z,9.80
2022-08-14T02:11:59.889Z,8.40
2022-08-14T02:14:32.113Z,9.33
2022-08-14T02:17:01.451Z,8.87
2022-08-14T02:19:32.413Z,8.97
2022-08-14T02:22:03.398Z,8.23
2022-08-14T02:24:38.704Z,8.10
2022-08-14T02:28:25.799Z,8.87
2022-08-14T02:30:00.414Z,7.93
2022-08-14T02:32:36.859Z,8.40
2022-08-14T02:35:18.600Z,8.67
2022-08-14T02:37:49.110Z,8.63
2022-08-14T02:40:20.545Z,8.87
2022-08-14T02:43:00.396Z,7.60
2022-08-14T02:45:38.849Z,8.70
2022-08-14T02:49:01.666Z,9.10
2022-08-14T02:51:02.589Z,9.30
2022-08-14T02:53:31.232Z,9.23
2022-08-14T02:56:03.097Z,9.33
2022-08-14T02:58:52.937Z,9.77
2022-08-14T03:01:26.214Z,9.80
2022-08-14T03:03:59.579Z,8.90
2022-08-14T03:06:35.050Z,9.37
2022-08-14T03:09:16.945Z,8.70
2022-08-14T03:11:46.332Z,9.80
2022-08-14T03:14:15.347Z,8.23
2022-08-14T03:16:45.454Z,9.17
2022-08-14T03:19:19.710Z,8.70
2022-08-14T03:21:53.119Z,10.47
2022-08-14T03:24:23.191Z,8.63
2022-08-14T03:26:57.743Z,10.10
2022-08-14T03:29:27.626Z,9.60
2022-08-14T03:31:57.509Z,10.40
2022-08-14T03:34:48.299Z,9.57
2022-08-14T03:37:51.008Z,9.80
2022-08-14T03:40:01.819Z,8.67
2022-08-14T03:42:35.812Z,10.20
2022-08-14T03:45:18.905Z,9.87
2022-08-14T03:47:58.582Z,9.20
2022-08-14T03:50:28.002Z,9.77
2022-08-14T03:53:01.476Z,8.60
2022-08-14T03:55:30.583Z,9.40
2022-08-14T03:58:00.880Z,8.80
2022-08-14T04:00:43.235Z,8.80
2022-08-14T04:03:18.226Z,9.93
2022-08-14T04:05:48.796Z,9.80
2022-08-14T04:08:29.581Z,9.43
2022-08-14T04:11:01.025Z,9.43
2022-08-14T04:13:34.104Z,9.60
2022-08-14T04:16:05.119Z,9.60
2022-08-14T04:18:34.978Z,11.10
2022-08-14T04:21:04.126Z,11.03
2022-08-14T04:23:33.459Z,10.63
2022-08-14T04:26:03.014Z,12.00
2022-08-14T04:29:07.128Z,9.93
2022-08-14T04:32:56.443Z,11.77
2022-08-14T04:34:20.954Z,11.40
2022-08-14T04:37:13.081Z,10.80
2022-08-14T04:39:58.987Z,11.30
2022-08-14T04:42:46.880Z,10.80
2022-08-14T04:45:21.968Z,10.90
2022-08-14T04:48:10.020Z,10.83
2022-08-14T04:50:45.089Z,11.37
2022-08-14T04:53:15.513Z,10.00
2022-08-14T04:55:50.012Z,9.90
2022-08-14T04:58:32.303Z,9.77
2022-08-14T05:01:03.904Z,9.67
2022-08-14T05:03:33.576Z,9.60
2022-08-14T05:06:04.012Z,9.30
2022-08-14T05:08:53.965Z,9.50
2022-08-14T05:11:24.160Z,9.60
2022-08-14T05:16:41.404Z,9.70
2022-08-14T05:19:18.548Z,8.73
2022-08-14T05:22:01.098Z,9.27
2022-08-14T05:24:43.783Z,10.07
2022-08-14T05:27:12.504Z,9.33
2022-08-14T05:29:44.735Z,9.30
2022-08-14T05:32:15.977Z,8.87
2022-08-14T05:34:46.059Z,9.60
2022-08-14T05:37:15.503Z,9.10
2022-08-14T05:39:44.167Z,8.33
2022-08-14T05:42:22.400Z,8.53
2022-08-14T05:44:55.515Z,9.03
2022-08-14T05:47:28.666Z,9.30
2022-08-14T05:50:02.253Z,10.07
2022-08-14T05:52:39.265Z,10.43
2022-08-14T05:55:10.764Z,9.90
2022-08-14T05:57:49.642Z,9.73
2022-08-14T06:00:29.137Z,10.90
2022-08-14T06:03:04.158Z,10.33
2022-08-14T06:05:38.720Z,10.40
2022-08-14T06:08:08.388Z,10.43
2022-08-14T06:10:53.803Z,10.50
2022-08-14T06:13:21.857Z,9.63
2022-08-14T06:15:51.080Z,10.03
2022-08-14T06:18:22.371Z,10.40
2022-08-14T06:20:54.153Z,9.93
2022-08-14T06:23:25.103Z,10.20
2022-08-14T06:25:55.563Z,10.27
2022-08-14T06:28:28.147Z,10.07
2022-08-14T06:30:56.849Z,11.00
2022-08-14T06:33:30.133Z,9.57
2022-08-14T06:36:18.375Z,8.73
2022-08-14T06:38:51.747Z,9.30
2022-08-14T06:41:20.786Z,10.03
2022-08-14T06:44:04.371Z,9.77
2022-08-14T06:46:36.955Z,10.00
2022-08-14T06:49:06.753Z,8.67
2022-08-14T06:51:38.679Z,10.63
2022-08-14T06:54:12.626Z,9.43
2022-08-14T06:56:44.418Z,8.93
2022-08-14T06:59:23.016Z,8.17
2022-08-14T07:02:13.573Z,8.90
2022-08-14T07:05:05.337Z,8.87
2022-08-14T07:07:40.404Z,9.27
2022-08-14T07:10:17.035Z,10.30
2022-08-14T07:13:01.070Z,9.13
2022-08-14T07:15:34.005Z,9.30
2022-08-14T07:18:08.562Z,8.47
2022-08-14T07:20:38.906Z,9.23
2022-08-14T07:23:11.088Z,10.00
2022-08-14T07:25:48.645Z,8.50
2022-08-14T07:28:23.312Z,10.10
2022-08-14T07:30:52.322Z,9.43
2022-08-14T07:33:29.062Z,8.50
2022-08-14T07:36:01.800Z,9.83
2022-08-14T07:38:36.306Z,9.03
2022-08-14T07:41:14.443Z,7.93
2022-08-14T07:43:55.123Z,8.17
2022-08-14T07:46:28.424Z,9.00
2022-08-14T07:48:57.880Z,8.47
2022-08-14T07:51:34.211Z,8.33
2022-08-14T07:54:10.930Z,8.53
2022-08-14T07:56:48.338Z,8.37
2022-08-14T07:59:18.473Z,9.10
2022-08-14T08:01:48.349Z,7.87
2022-08-14T08:04:40.908Z,8.20
2022-08-14T08:07:52.066Z,8.33
2022-08-14T08:11:02.275Z,8.40
2022-08-14T08:13:24.124Z,7.10
2022-08-14T08:15:56.771Z,7.60
2022-08-14T08:18:27.536Z,7.73
2022-08-14T08:20:59.783Z,8.50
2022-08-14T08:23:40.854Z,7.50
2022-08-14T08:26:12.682Z,8.23
2022-08-14T08:28:43.772Z,7.30
2022-08-14T08:31:14.393Z,6.83
2022-08-14T08:33:43.695Z,8.17
2022-08-14T08:36:18.479Z,7.37
2022-08-14T08:39:15.437Z,8.23
2022-08-14T08:41:43.861Z,7.40
2022-08-14T08:44:17.485Z,6.70
2022-08-14T08:47:05.321Z,7.37
2022-08-14T08:49:42.298Z,7.77
2022-08-14T08:52:25.071Z,7.90
2022-08-14T08:54:58.853Z,7.60
2022-08-14T08:57:27.413Z,6.97
2022-08-14T08:59:58.953Z,6.73
2022-08-14T09:02:27.985Z,7.17
2022-08-14T09:05:07.732Z,6.97
2022-08-14T09:07:36.445Z,6.70
2022-08-14T09:10:06.993Z,5.90
2022-08-14T09:12:36.279Z,5.80
2022-08-14T09:15:11.656Z,5.90
2022-08-14T09:17:42.354Z,5.77
2022-08-14T09:20:12.193Z,5.13
2022-08-14T09:22:42.612Z,5.60
2022-08-14T09:25:19.941Z,5.47
2022-08-14T09:28:07.271Z,5.27
2022-08-14T09:30:37.799Z,5.10
2022-08-14T09:33:56.351Z,5.27
2022-08-14T09:36:52.192Z,5.00
2022-08-14T09:39:38.602Z,4.70
2022-08-14T09:42:33.440Z,4.53
2022-08-14T09:45:19.492Z,5.17
2022-08-14T09:47:52.377Z,5.20
2022-08-14T09:50:32.063Z,5.33
2022-08-14T09:53:04.293Z,4.10
2022-08-14T09:55:41.606Z,4.00
2022-08-14T09:59:07.096Z,4.70
2022-08-14T10:01:45.920Z,4.10
2022-08-14T10:04:50.034Z,4.50
2022-08-14T10:07:32.258Z,4.17
2022-08-14T10:10:23.550Z,4.43
2022-08-14T10:12:53.234Z,3.90
2022-08-14T10:15:29.832Z,4.20
2022-08-14T10:18:17.618Z,4.03
2022-08-14T10:20:57.911Z,3.87
2022-08-14T10:23:30.024Z,3.63
2022-08-14T10:26:09.249Z,4.07
2022-08-14T10:29:18.135Z,4.43
2022-08-14T10:31:43.145Z,4.10
2022-08-14T10:34:19.741Z,4.30
2022-08-14T10:36:50.101Z,4.40
2022-08-14T10:39:30.730Z,5.23
2022-08-14T10:42:16.659Z,3.80
2022-08-14T10:44:52.388Z,4.03
2022-08-14T10:47:39.677Z,4.63
2022-08-14T10:50:12.149Z,4.60
2022-08-14T10:52:45.056Z,4.37
2022-08-14T10:55:16.086Z,4.33
2022-08-14T10:57:51.759Z,4.40
2022-08-14T11:00:30.427Z,4.70
2022-08-14T11:03:26.523Z,4.37
2022-08-14T11:06:20.242Z,5.00
2022-08-14T11:08:52.029Z,4.70
2022-08-14T11:11:28.522Z,5.30
2022-08-14T11:14:09.328Z,4.17
2022-08-14T11:16:40.655Z,4.60
2022-08-14T11:19:11.861Z,5.23
2022-08-14T11:21:45.851Z,5.20
2022-08-14T11:24:54.843Z,4.27
2022-08-14T11:27:06.723Z,4.70
2022-08-14T11:29:37.161Z,4.70
2022-08-14T11:32:07.842Z,4.60
2022-08-14T11:34:40.058Z,4.90
2022-08-14T11:37:21.521Z,4.60
2022-08-14T11:40:00.529Z,4.23
2022-08-14T11:42:58.114Z,4.63
2022-08-14T11:45:23.217Z,4.00
2022-08-14T11:48:13.390Z,4.03
2022-08-14T11:50:42.360Z,3.73
2022-08-14T11:53:23.019Z,4.40
2022-08-14T11:55:58.551Z,4.33
2022-08-14T11:58:28.924Z,4.90
2022-08-14T12:01:00.442Z,4.30
2022-08-14T12:03:51.678Z,4.40
2022-08-14T12:06:29.165Z,4.90
2022-08-14T12:09:08.538Z,4.50
2022-08-14T12:11:44.081Z,4.83
2022-08-14T12:14:34.557Z,4.47
2022-08-14T12:17:06.653Z,4.50
2022-08-14T12:19:54.227Z,5.00
2022-08-14T12:22:37.618Z,4.80
2022-08-14T12:25:11.475Z,4.73
2022-08-14T12:27:52.441Z,4.20
2022-08-14T12:30:39.585Z,3.90
2022-08-14T12:33:26.951Z,4.53
2022-08-14T12:36:04.480Z,4.93
2022-08-14T12:38:37.488Z,5.07
2022-08-14T12:41:10.496Z,4.50
2022-08-14T12:43:51.733Z,4.30
2022-08-14T12:46:29.074Z,4.70
2022-08-14T12:49:00.108Z,5.10
2022-08-14T12:51:31.400Z,4.63
2022-08-14T12:54:02.233Z,5.17
2022-08-14T12:56:33.116Z,5.10
2022-08-14T12:59:04.674Z,4.00
2022-08-14T13:01:59.247Z,4.97
2022-08-14T13:04:25.850Z,4.23
2022-08-14T13:06:54.658Z,4.40
2022-08-14T13:09:37.782Z,4.80
2022-08-14T13:12:31.344Z,5.37
2022-08-14T13:14:59.803Z,4.87
2022-08-14T13:17:44.107Z,4.53
2022-08-14T13:20:23.321Z,4.93
2022-08-14T13:22:55.017Z,4.83
2022-08-14T13:25:28.021Z,4.50
2022-08-14T13:28:00.143Z,5.00
2022-08-14T13:30:28.678Z,4.60
2022-08-14T13:33:00.231Z,4.90
2022-08-14T13:35:30.400Z,4.40
2022-08-14T13:38:01.477Z,5.77
2022-08-14T13:40:31.073Z,4.57
2022-08-14T13:42:59.875Z,4.40
2022-08-14T13:45:34.114Z,4.60
2022-08-14T13:48:27.469Z,4.03
2022-08-14T13:51:02.101Z,4.80
2022-08-14T13:53:43.234Z,4.17
2022-08-14T13:56:37.007Z,3.67
2022-08-14T13:59:04.833Z,3.93
2022-08-14T14:01:43.518Z,3.33
2022-08-14T14:04:19.293Z,3.77
2022-08-14T14:06:51.269Z,4.40
2022-08-14T14:09:32.654Z,4.63
2022-08-14T14:12:37.998Z,5.03
2022-08-14T14:15:13.091Z,5.00
2022-08-14T14:17:43.941Z,3.97
2022-08-14T14:20:34.971Z,4.83
2022-08-14T14:23:12.173Z,4.23
2022-08-14T14:25:51.007Z,3.93
2022-08-14T14:28:31.901Z,4.10
2022-08-14T14:31:05.990Z,4.20
2022-08-14T14:33:52.206Z,3.87
2022-08-14T14:36:27.897Z,4.57
2022-08-14T14:38:58.397Z,4.80
2022-08-14T14:41:37.571Z,4.50
2022-08-14T14:44:15.475Z,4.27
2022-08-14T14:46:51.141Z,4.30
2022-08-14T14:49:25.867Z,4.73
2022-08-14T14:52:23.336Z,4.67
2022-08-14T14:54:57.739Z,4.40
2022-08-14T14:57:35.235Z,4.70
2022-08-14T15:00:08.682Z,5.07
2022-08-14T15:02:42.102Z,4.73
2022-08-14T15:05:11.539Z,4.80
2022-08-14T15:07:41.533Z,4.27
2022-08-14T15:10:28.055Z,4.90
2022-08-14T15:13:03.753Z,5.20
2022-08-14T15:15:37.410Z,4.87
2022-08-14T15:18:36.588Z,5.23
2022-08-14T15:20:58.291Z,4.37
2022-08-14T15:23:34.131Z,4.93
2022-08-14T15:26:24.283Z,5.43
2022-08-14T15:29:03.245Z,5.30
2022-08-14T15:31:37.063Z,4.97
2022-08-14T15:34:43.074Z,4.60
2022-08-14T15:37:01.025Z,5.13
2022-08-14T15:39:35.461Z,5.10
2022-08-14T15:42:14.854Z,5.80
2022-08-14T15:44:58.075Z,4.93
2022-08-14T15:47:30.850Z,5.17
2022-08-14T15:50:00.678Z,5.60
2022-08-14T15:52:35.650Z,5.60
2022-08-14T15:55:08.585Z,5.50
2022-08-14T15:57:37.387Z,5.03
2022-08-14T16:00:43.272Z,5.93
2022-08-14T16:03:15.798Z,5.67
2022-08-14T16:05:47.005Z,5.30
2022-08-14T16:08:29.066Z,5.97
2022-08-14T16:10:59.534Z,6.10
2022-08-14T16:13:39.350Z,5.13
2022-08-14T16:16:47.162Z,5.20
2022-08-14T16:19:11.816Z,6.40
2022-08-14T16:22:01.213Z,5.70
2022-08-14T16:24:34.773Z,4.97
2022-08-14T16:27:05.464Z,6.07
2022-08-14T16:29:40.029Z,5.80
2022-08-14T16:32:33.579Z,6.07
2022-08-14T16:35:03.102Z,4.80
2022-08-14T16:37:34.169Z,5.67
2022-08-14T16:40:05.030Z,5.50
2022-08-14T16:43:02.226Z,5.67
2022-08-14T16:45:27.248Z,5.33
2022-08-14T16:47:56.058Z,5.83
2022-08-14T16:50:40.758Z,6.03
2022-08-14T16:53:17.714Z,5.13
2022-08-14T16:55:51.108Z,5.70
2022-08-14T16:58:29.720Z,5.73
2022-08-14T17:01:24.317Z,5.43
2022-08-14T17:04:06.433Z,5.57
2022-08-14T17:06:49.246Z,5.73
2022-08-14T17:09:32.842Z,5.43
2022-08-14T17:12:07.427Z,5.60
2022-08-14T17:15:03.585Z,4.90
2022-08-14T17:17:57.886Z,5.83
2022-08-14T17:21:00.083Z,5.27
2022-08-14T17:23:19.615Z,4.40
2022-08-14T17:25:51.257Z,5.33
2022-08-14T17:28:51.631Z,5.57
2022-08-14T17:31:12.240Z,5.07
2022-08-14T17:36:32.326Z,4.63
2022-08-14T17:39:06.799Z,5.33
2022-08-14T17:41:43.367Z,5.47
2022-08-14T17:44:34.068Z,4.53
2022-08-14T17:47:10.632Z,4.90
2022-08-14T17:49:47.058Z,5.00
2022-08-14T17:52:34.126Z,4.80
2022-08-14T17:55:07.036Z,5.13
2022-08-14T17:57:46.321Z,4.03
2022-08-14T18:00:17.775Z,4.30
2022-08-14T18:02:51.269Z,4.80
2022-08-14T18:06:07.123Z,5.13
2022-08-14T18:08:32.371Z,4.30
2022-08-14T18:11:05.257Z,5.27
2022-08-14T18:13:50.353Z,5.17
2022-08-14T18:16:22.517Z,4.63
2022-08-14T18:18:56.395Z,4.63
2022-08-14T18:21:41.363Z,5.43
2022-08-14T18:24:19.898Z,5.20
2022-08-14T18:27:08.736Z,5.20
2022-08-14T18:29:42.986Z,4.47
2022-08-14T18:32:47.100Z,5.07
2022-08-14T18:35:46.204Z,4.70
2022-08-14T18:38:43.128Z,4.93
2022-08-14T18:41:37.479Z,5.20
2022-08-14T18:44:10.243Z,5.27
2022-08-14T18:47:17.987Z,5.23
2022-08-14T18:50:27.580Z,4.53
2022-08-14T18:52:55.086Z,5.00
2022-08-14T18:55:53.124Z,5.00
2022-08-14T18:58:33.901Z,5.00
2022-08-14T19:01:06.206Z,5.10
2022-08-14T19:03:52.545Z,5.10
2022-08-14T19:06:21.060Z,5.10
2022-08-14T19:08:52.571Z,4.77
2022-08-14T19:11:50.522Z,4.70
2022-08-14T19:14:46.473Z,5.53
2022-08-14T19:18:15.047Z,5.37
2022-08-14T19:20:52.754Z,5.00
2022-08-14T19:23:43.890Z,6.00
2022-08-14T19:26:35.234Z,6.10
2022-08-14T19:29:24.209Z,5.60
2022-08-14T19:31:56.247Z,6.17
2022-08-14T19:34:52.169Z,4.93
2022-08-14T19:37:47.367Z,5.23
2022-08-14T19:40:33.955Z,5.50
2022-08-14T19:43:06.627Z,5.50
2022-08-14T19:45:38.170Z,5.00
2022-08-14T19:48:15.870Z,5.10
2022-08-14T19:50:47.673Z,5.80
2022-08-14T19:53:20.129Z,5.37
2022-08-14T19:56:04.945Z,5.80
2022-08-14T19:58:54.431Z,5.60
2022-08-14T20:01:37.075Z,5.60
2022-08-14T20:04:47.494Z,5.10
2022-08-14T20:07:04.423Z,5.30
2022-08-14T20:11:03.117Z,5.50
2022-08-14T20:12:35.354Z,5.87
2022-08-14T20:15:21.036Z,5.80
2022-08-14T20:17:52.786Z,6.33
2022-08-14T20:20:31.695Z,6.20
2022-08-14T20:23:03.046Z,5.30
2022-08-14T20:25:45.210Z,5.67
2022-08-14T20:28:32.177Z,5.40
2022-08-14T20:31:15.921Z,5.57
2022-08-14T20:34:06.156Z,5.03
2022-08-14T20:36:38.856Z,5.37
2022-08-14T20:39:15.202Z,5.93
2022-08-14T20:41:48.969Z,5.40
2022-08-14T20:44:40.413Z,6.23
2022-08-14T20:47:08.342Z,5.50
2022-08-14T20:49:37.303Z,5.83
2022-08-14T20:52:19.154Z,5.93
2022-08-14T20:54:51.758Z,6.20
2022-08-14T20:57:20.732Z,5.70
2022-08-14T20:59:53.207Z,6.00
2022-08-14T21:02:38.451Z,6.70
2022-08-14T21:05:21.914Z,5.47
2022-08-14T21:08:09.856Z,5.70
2022-08-14T21:10:50.829Z,6.10
2022-08-14T21:14:08.602Z,5.60
2022-08-14T21:16:25.910Z,5.80
2022-08-14T21:18:59.992Z,5.90
2022-08-14T21:21:41.475Z,5.70
2022-08-14T21:24:38.904Z,5.23
2022-08-14T21:27:13.111Z,6.07
2022-08-14T21:29:53.579Z,6.83
2022-08-14T21:32:35.088Z,5.90
2022-08-14T21:35:08.378Z,6.83
2022-08-14T21:37:45.965Z,6.60
2022-08-14T21:40:18.617Z,5.70
2022-08-14T21:43:06.175Z,6.63
2022-08-14T21:45:51.648Z,6.43
2022-08-14T21:48:22.175Z,5.90
2022-08-14T21:51:01.503Z,5.93
2022-08-14T21:53:58.801Z,6.30
2022-08-14T21:56:37.238Z,6.40
2022-08-14T21:59:09.233Z,5.60
2022-08-14T22:02:01.809Z,7.30
2022-08-14T22:04:33.682Z,6.10
2022-08-14T22:07:05.867Z,6.20
2022-08-14T22:09:36.508Z,5.53
2022-08-14T22:12:07.316Z,6.60
2022-08-14T22:14:43.124Z,6.10
2022-08-14T22:17:16.369Z,8.00
2022-08-14T22:19:54.719Z,6.40
2022-08-14T22:22:26.410Z,6.67
2022-08-14T22:25:00.355Z,6.77
2022-08-14T22:27:32.270Z,6.37
2022-08-14T22:30:01.021Z,7.00
2022-08-14T22:32:35.416Z,6.23
2022-08-14T22:35:17.824Z,6.33
2022-08-14T22:37:47.337Z,6.27
2022-08-14T22:41:00.269Z,7.30
2022-08-14T22:43:24.209Z,6.97
2022-08-14T22:45:55.782Z,6.90
2022-08-14T22:48:24.146Z,6.43
2022-08-14T22:50:53.449Z,6.10
2022-08-14T22:53:23.158Z,6.00
2022-08-14T22:55:51.998Z,6.53
2022-08-14T22:58:30.241Z,6.43
2022-08-14T23:01:01.477Z,5.50
2022-08-14T23:03:34.332Z,6.43
2022-08-14T23:07:03.505Z,6.37
2022-08-14T23:08:59.028Z,6.80
2022-08-14T23:11:30.438Z,7.40
2022-08-14T23:14:00.898Z,7.07
2022-08-14T23:16:31.276Z,6.30
2022-08-14T23:18:59.223Z,7.17
2022-08-14T23:21:28.834Z,6.77
2022-08-14T23:23:59.412Z,7.00
2022-08-14T23:26:48.124Z,6.50
2022-08-14T23:29:18.479Z,6.20
2022-08-14T23:31:46.441Z,6.00
2022-08-14T23:34:20.469Z,6.33
2022-08-14T23:36:54.459Z,6.83
2022-08-14T23:39:29.687Z,6.77
2022-08-14T23:42:02.448Z,7.23
2022-08-14T23:44:35.081Z,7.33
2022-08-14T23:47:10.732Z,7.10
2022-08-14T23:50:01.375Z,6.93
2022-08-14T23:52:56.063Z,6.67
2022-08-14T23:55:18.981Z,6.50
2022-08-14T23:57:58.134Z,6.90
